Terminal Aerodrome Forecast
Issued by NWS

Home | Current Version | Previous Version | Graphics & Text | Print | Product List | Glossary On
Versions: 1 2 3 4 5 6 7 8 9 10 11 12 13 14 15 16 17 18 19 20 21 22 23 24 25 26 27 28 29 30 31 32 33 34 35 36 37 38 39 40 41
000
FTUS43 KGRB 210400 AAA
TAFRHI
TAF AMD
KRHI 210429Z 2104/2124 26008KT P6SM OVC040
      TEMPO 2104/2106 -SN BKN020
     FM210600 26010KT P6SM -SN BKN015 OVC050
      TEMPO 2110/2114 3SM -SN BR
     FM211400 28012G20KT 5SM -SN BKN020 OVC040
      TEMPO 2116/2120 2SM -SN OVC015=

USA.gov is the U.S. government's official web portal to all federal, state and local government web resources and services.